Terminal Aerodrome Forecast
Issued by NWS

Home | Current Version | Previous Version | Graphics & Text | Print | Product List | Glossary On
Versions: 1 2 3 4 5 6 7 8 9 10 11 12 13
268
FTUS41 KCLE 242335
TAFFDY
TAF
KFDY 242335Z 2500/2524 10012KT P6SM BKN250
     FM250300 09008KT P6SM OVC070
     FM251100 11006KT 6SM BR OVC020
     FM251400 12008KT P6SM BKN050
     FM251800 13010KT P6SM SCT050=

USA.gov is the U.S. government's official web portal to all federal, state and local government web resources and services.